Latest Weather Observations for Perisher Valley

IDN60901

Issued at 1:11 pm EST Tuesday 3 May 2016 (issued every 10 minutes, with the page automatically refreshed every 10 minutes)

About weather observations | Map of Canberra area stations | Latest observations for Canberra area | Other Formats
Station Details ID: 071075 Name: PERISHER VALLEY AWS Lat: -36.41 Lon: 148.41 Height: 1738.0 m
Data from the previous 72 hours. | See also: Recent months at Perisher Valley
Date/Time
EST
Tmp

°C
App
Tmp
°C
Dew
Point
°C
Rel
Hum
%
Delta-T

°C
Wind Press
QNH
hPa
Press
MSL
hPa
Rain
since
9 am
mm
Dir
 
Spd
km/h
Gust
km/h
Spd
kts
Gust
kts
03/01:00pm 3.9 -4.5 1.3 83 1.1 W 35 87 19 47 - - 0.0
03/12:30pm 3.9 -3.3 0.9 81 1.3 W 28 70 15 38 - - 0.0
03/12:24pm 3.7 -3.5 0.9 82 1.2 W 28 72 15 39 - - 0.0
03/12:20pm 3.8 -2.6 0.8 81 1.3 W 24 72 13 39 - - 0.0
03/12:00pm 3.8 -3.4 0.8 81 1.3 W 28 50 15 27 - - 0.0
03/11:30am 3.4 -4.7 0.8 83 1.1 W 33 76 18 41 - - 0.0
03/11:00am 3.4 -5.9 0.8 83 1.1 W 39 74 21 40 - - 0.0
03/10:30am 3.4 -4.8 0.6 82 1.2 W 33 69 18 37 - - 0.0
03/10:00am 3.1 -6.2 0.7 84 1.0 W 39 70 21 38 - - 0.0
03/09:30am 3.1 -7.0 0.5 83 1.1 W 43 72 23 39 - - 0.0
03/09:00am 2.6 -8.0 0.8 88 0.8 W 46 76 25 41 - - 0.0
03/08:30am 2.5 -6.4 0.7 88 0.8 W 37 69 20 37 - - 0.0
03/08:00am 2.3 -6.6 0.8 90 0.6 W 37 70 20 38 - - 0.0
03/07:30am 2.2 -5.0 0.6 89 0.7 W 28 56 15 30 - - 0.0
03/07:03am 2.2 -5.0 0.7 90 0.6 W 28 59 15 32 - - 0.0
03/07:00am 2.2 -4.6 0.9 91 0.6 WNW 26 59 14 32 - - 0.0
03/06:30am 2.2 -5.0 0.7 90 0.6 W 28 50 15 27 - - 0.0
03/06:00am 2.1 -6.1 0.6 90 0.6 W 33 56 18 30 - - 0.0
03/05:37am 2.2 -5.0 0.6 89 0.7 WNW 28 52 15 28 - - 0.0
03/05:30am 2.1 -4.0 0.5 89 0.7 W 22 46 12 25 - - 0.0
03/05:00am 2.1 -5.6 0.0 86 0.9 WNW 30 63 16 34 - - 0.0
03/04:52am 2.2 -5.1 -0.2 84 1.0 W 28 59 15 32 - - 0.0
03/04:30am 2.0 -3.6 0.1 87 0.8 W 19 41 10 22 - - 0.0
03/04:00am 2.0 -4.9 0.1 87 0.8 W 26 44 14 24 - - 0.0
03/03:30am 2.1 -6.9 -0.2 85 1.0 W 37 70 20 38 - - 0.0
03/03:00am 1.9 -7.6 -0.8 82 1.1 W 39 65 21 35 - - 0.0
03/02:30am 1.7 -10.7 -1.2 81 1.2 W 54 80 29 43 - - 0.0
03/02:00am 1.7 -8.8 -1.2 81 1.2 WNW 44 72 24 39 - - 0.0
03/01:39am 1.6 -5.9 -1.5 80 1.2 W 28 54 15 29 - - 0.0
03/01:30am 1.4 -5.7 -1.3 82 1.1 W 26 50 14 27 - - 0.0
03/01:00am 1.7 -6.7 -1.2 81 1.2 W 33 57 18 31 - - 0.0
03/12:30am 1.4 -7.4 -1.5 81 1.2 W 35 61 19 33 - - 0.0
03/12:00am 1.3 -7.0 -1.8 80 1.2 W 32 67 17 36 - - 0.0
 
Date/Time
EST
Tmp

°C
App
Tmp
°C
Dew
Point
°C
Rel
Hum
%
Delta-T

°C
Wind Press
QNH
hPa
Press
MSL
hPa
Rain
since
9 am
mm
Dir
 
Spd
km/h
Gust
km/h
Spd
kts
Gust
kts
02/11:34pm 1.0 -6.6 -1.9 81 1.2 W 28 52 15 28 - - 0.0
02/11:30pm 1.0 -6.6 -1.9 81 1.2 W 28 44 15 24 - - 0.0
02/11:00pm 1.0 -6.5 -1.7 82 1.1 WSW 28 48 15 26 - - 0.0
02/10:57pm 1.0 -6.6 -1.9 81 1.2 W 28 48 15 26 - - 0.0
02/10:30pm 0.9 -5.9 -1.7 83 1.1 W 24 50 13 27 - - 0.0
02/10:00pm 0.9 -6.6 -1.7 83 1.1 WSW 28 52 15 28 - - 0.0
02/09:53pm 0.7 -6.9 -1.8 83 1.0 WSW 28 48 15 26 - - 0.0
02/09:30pm 0.7 -6.5 -1.8 83 1.0 W 26 44 14 24 - - 0.0
02/09:00pm 0.6 -5.8 -1.8 84 1.0 W 22 39 12 21 - - 0.0
02/08:30pm 0.6 -7.3 -1.9 83 1.0 WNW 30 50 16 27 - - 0.0
02/08:00pm 0.7 -7.7 -2.2 81 1.2 W 32 54 17 29 - - 0.0
02/07:30pm 0.7 -7.3 -2.5 79 1.3 W 30 56 16 30 - - 0.0
02/07:00pm 0.5 -7.5 -2.7 79 1.3 W 30 50 16 27 - - 0.0
02/06:30pm 0.4 -7.3 -2.6 80 1.2 W 28 50 15 27 - - 0.0
02/06:00pm 0.4 -8.0 -2.5 81 1.1 WNW 32 50 17 27 - - 0.0
02/05:30pm 0.1 -8.4 -2.0 86 0.8 W 33 61 18 33 - - 0.0
02/05:00pm 0.2 -8.3 -2.0 85 0.9 WNW 33 59 18 32 - - 0.0
02/04:30pm 0.5 -8.0 -1.6 86 0.9 WNW 33 63 18 34 - - 0.0
02/04:00pm 0.7 -7.6 -1.4 86 0.9 W 32 57 17 31 - - 0.0
02/03:30pm 0.7 -7.5 -1.2 87 0.8 WNW 32 54 17 29 - - 0.0
02/03:15pm 0.8 -6.7 -1.4 85 0.9 WNW 28 46 15 25 - - 0.0
02/03:00pm 0.7 -6.4 -1.2 87 0.8 W 26 50 14 27 - - 0.0
02/02:45pm 0.8 -6.7 -1.3 86 0.9 W 28 54 15 29 - - 0.0
02/02:30pm 1.1 -4.9 -1.5 83 1.0 W 20 48 11 26 - - 0.0
02/02:00pm 1.6 -3.8 -1.5 80 1.2 W 17 43 9 23 - - 0.0
02/01:30pm 0.9 -6.3 -1.8 82 1.1 W 26 52 14 28 - - 0.0
02/01:00pm 0.8 -6.9 -2.6 78 1.3 W 28 52 15 28 - - 0.0
02/12:57pm 1.1 -6.5 -2.0 80 1.3 W 28 52 15 28 - - 0.0
02/12:30pm 1.2 -4.3 -1.9 80 1.3 W 17 37 9 20 - - 0.0
02/12:00pm 1.9 -1.6 -1.7 77 1.4 NW 7 20 4 11 - - 0.0
02/11:30am 1.1 -2.6 -2.5 77 1.5 WSW 7 28 4 15 - - 0.0
02/11:00am 1.7 -1.9 -2.2 75 1.5 WSW 7 15 4 8 - - 0.0
02/10:30am 2.7 -1.0 -3.2 65 2.3 W 7 19 4 10 - - 0.0
02/10:00am 2.2 -1.9 -3.1 68 2.0 WNW 9 19 5 10 - - 0.0
02/09:30am 1.6 -2.5 -2.7 73 1.7 WNW 9 20 5 11 - - 0.0
02/09:00am 0.8 -4.8 -3.3 74 1.6 WNW 17 28 9 15 - - 7.8
02/08:30am 0.7 -3.9 -4.3 69 1.9 WNW 11 19 6 10 - - 7.8
02/08:00am 0.8 -4.1 -7.2 55 2.8 W 11 20 6 11 - - 7.8
02/07:30am -0.8 -6.1 -4.0 79 1.1 W 15 24 8 13 - - 7.8
02/07:00am -1.0 -7.1 -3.8 81 1.0 W 19 35 10 19 - - 7.8
02/06:30am -1.3 -7.5 -4.6 78 1.1 W 19 41 10 22 - - 7.8
02/06:00am -1.3 -8.3 -3.8 83 0.8 W 24 39 13 21 - - 7.8
02/05:30am -1.1 -7.4 -3.9 81 1.0 W 20 33 11 18 - - 7.8
02/05:00am -1.1 -6.7 -3.3 85 0.8 W 17 32 9 17 - - 7.8
02/04:30am -0.9 -6.2 -3.3 84 0.8 WSW 15 32 8 17 - - 7.8
02/04:00am -0.8 -6.4 -2.8 86 0.7 W 17 46 9 25 - - 7.8
02/03:30am -0.6 -7.1 -2.5 87 0.7 W 22 50 12 27 - - 7.8
02/03:02am -0.5 -8.1 -1.9 90 0.5 WNW 28 52 15 28 - - 7.8
02/03:00am -0.4 -7.6 -1.8 90 0.5 WNW 26 52 14 28 - - 7.8
02/02:33am -0.3 -7.9 -2.0 88 0.6 WNW 28 50 15 27 - - 7.8
02/02:30am -0.3 -7.5 -1.9 89 0.6 W 26 59 14 32 - - 7.8
02/02:00am -0.1 -8.0 -1.8 88 0.7 WNW 30 54 16 29 - - 7.8
02/01:31am 0.0 -7.6 -2.2 85 0.8 WNW 28 50 15 27 - - 7.8
02/01:30am 0.0 -7.2 -2.1 86 0.8 WNW 26 46 14 25 - - 7.8
02/01:00am 0.3 -7.6 -1.4 88 0.7 WNW 30 56 16 30 - - 7.8
02/12:30am 0.4 -7.8 -1.2 89 0.7 WNW 32 54 17 29 - - 7.8
02/12:00am 0.5 -8.7 -1.6 86 0.9 W 37 65 20 35 - - 7.8
 
Date/Time
EST
Tmp

°C
App
Tmp
°C
Dew
Point
°C
Rel
Hum
%
Delta-T

°C
Wind Press
QNH
hPa
Press
MSL
hPa
Rain
since
9 am
mm
Dir
 
Spd
km/h
Gust
km/h
Spd
kts
Gust
kts
01/11:30pm 0.8 -7.6 -1.1 87 0.8 WNW 33 57 18 31 - - 7.8
01/11:00pm 0.8 -6.6 -0.5 91 0.5 WNW 28 52 15 28 - - 7.8
01/10:30pm 0.9 -7.9 -1.0 87 0.8 WNW 35 61 19 33 - - 7.8
01/10:00pm 0.9 -8.7 -1.3 85 0.9 W 39 61 21 33 - - 7.8
01/09:30pm 1.1 -9.2 -1.1 85 0.9 W 43 72 23 39 - - 7.8
01/09:00pm 1.2 -9.1 -1.4 83 1.0 WNW 43 69 23 37 - - 7.8
01/08:30pm 1.4 -9.6 -1.7 80 1.2 WNW 46 82 25 44 - - 7.8
01/08:00pm 1.4 -9.1 -1.3 82 1.1 WNW 44 74 24 40 - - 7.8
01/07:30pm 1.4 -8.9 -1.3 82 1.1 WNW 43 76 23 41 - - 7.8
01/07:00pm 1.7 -8.6 -0.9 83 1.1 WNW 43 69 23 37 - - 7.8
01/06:30pm 1.8 -7.3 -0.9 82 1.1 W 37 69 20 37 - - 7.8
01/06:00pm 2.0 -5.5 -1.2 79 1.3 W 28 54 15 29 - - 7.8
01/05:30pm 2.4 -5.9 -1.6 75 1.6 W 32 67 17 36 - - 7.8
01/05:00pm 2.5 -5.6 -0.3 82 1.2 WNW 32 57 17 31 - - 7.8
01/04:30pm 2.5 -6.7 -1.1 77 1.5 WNW 37 67 20 36 - - 7.8
01/04:00pm 2.9 -4.9 -0.7 77 1.5 W 30 57 16 31 - - 7.8
01/03:34pm 3.0 -4.4 -0.6 77 1.5 W 28 61 15 33 - - 7.8
01/03:30pm 3.1 -3.1 -0.4 78 1.5 W 22 61 12 33 - - 7.8
01/03:02pm 3.5 -4.0 -1.1 72 1.9 W 28 76 15 41 - - 7.8
01/03:00pm 3.5 -3.6 -1.3 71 2.0 W 26 76 14 41 - - 7.8
01/02:30pm 3.3 -6.1 -0.3 77 1.5 WNW 39 65 21 35 - - 7.8
01/02:00pm 3.9 -8.4 -0.7 72 1.9 WNW 54 87 29 47 - - 7.8
01/01:30pm 4.4 -5.0 0.0 73 1.9 WNW 39 74 21 40 - - 7.8
01/01:11pm 3.9 -3.3 0.6 79 1.4 W 28 67 15 36 - - 7.8
01/01:00pm 4.3 -1.8 0.1 74 1.8 W 22 59 12 32 - - 7.8
01/12:30pm 4.5 -3.5 0.1 73 1.9 WNW 32 78 17 42 - - 7.8
01/12:00pm 4.7 -2.5 0.8 76 1.7 W 28 65 15 35 - - 7.8
01/11:58am 4.6 -2.6 0.9 77 1.6 WNW 28 57 15 31 - - 7.8
01/11:30am 4.5 -2.2 1.2 79 1.4 W 26 74 14 40 - - 7.8
01/11:11am 4.4 -2.5 2.6 88 0.8 WNW 28 69 15 37 - - 7.8
01/11:08am 4.5 -2.0 2.8 89 0.8 WNW 26 69 14 37 - - 7.8
01/11:04am 4.5 -2.3 3.0 90 0.7 W 28 69 15 37 - - 7.8
01/11:00am 4.7 -0.6 3.2 90 0.7 W 20 63 11 34 - - 7.8
01/10:52am 4.9 -1.1 3.6 91 0.6 W 24 69 13 37 - - 7.6
01/10:42am 5.0 -3.9 3.2 88 0.8 W 39 89 21 48 - - 7.6
01/10:30am 5.1 -3.8 3.3 88 0.8 W 39 67 21 36 - - 7.6
01/10:09am 5.5 0.6 4.2 91 0.6 W 19 63 10 34 - - 7.6
01/10:00am 5.8 0.9 4.3 90 0.7 W 19 52 10 28 - - 7.0
01/09:30am 6.6 -1.1 5.2 91 0.7 W 35 70 19 38 - - 3.4
01/09:11am 6.4 -2.5 4.9 90 0.7 W 41 83 22 45 - - 2.6
01/09:00am 7.5 0.3 5.8 89 0.9 W 33 61 18 33 - - 26.4
01/08:46am 7.8 2.4 6.3 90 0.8 WNW 24 65 13 35 - - 26.2
01/08:30am 7.9 3.3 6.7 92 0.6 W 20 57 11 31 - - 26.2
01/08:00am 8.2 1.7 6.5 89 0.9 WNW 30 76 16 41 - - 25.4
01/07:30am 8.0 1.2 7.1 94 0.5 W 32 70 17 38 - - 24.0
01/07:25am 8.3 2.3 6.9 91 0.7 W 28 72 15 39 - - 24.0
01/07:00am 8.6 5.5 7.4 92 0.6 WNW 13 41 7 22 - - 20.8
01/06:30am 8.4 5.3 7.2 92 0.6 WNW 13 48 7 26 - - 13.4
01/06:00am 8.6 5.4 6.7 88 1.0 NW 13 54 7 29 - - 9.4
01/05:30am 8.9 5.7 6.9 87 1.0 NW 13 44 7 24 - - 8.0
01/05:00am 8.9 6.5 7.2 89 0.9 NW 9 28 5 15 - - 8.0
01/04:30am 8.6 4.6 6.6 87 1.0 WNW 17 57 9 31 - - 5.2
01/04:00am 9.9 6.0 7.3 84 1.4 NW 17 46 9 25 - - 3.2
01/03:30am 9.2 5.3 7.2 87 1.0 WSW 17 39 9 21 - - 3.0
01/03:00am 8.8 5.6 6.8 87 1.0 WSW 13 37 7 20 - - 3.0
01/02:30am 8.4 6.2 6.0 85 1.2 W 7 28 4 15 - - 3.0
01/02:00am 8.6 6.1 6.6 87 1.0 W 9 32 5 17 - - 3.0
01/01:30am 8.6 5.7 6.7 88 1.0 WNW 11 35 6 19 - - 3.0
01/01:00am 8.4 6.3 6.5 88 1.0 NW 7 32 4 17 - - 3.0
01/12:30am 8.4 5.8 6.0 85 1.2 WSW 9 24 5 13 - - 3.0
01/12:02am 8.8 2.5 5.9 82 1.5 W 28 70 15 38 - - 3.0
01/12:00am 8.7 2.8 5.8 82 1.5 W 26 44 14 24 - - 3.0
 
Date/Time
EST
Tmp

°C
App
Tmp
°C
Dew
Point
°C
Rel
Hum
%
Delta-T

°C
Wind Press
QNH
hPa
Press
MSL
hPa
Rain
since
9 am
mm
Dir
 
Spd
km/h
Gust
km/h
Spd
kts
Gust
kts
30/11:53pm 8.5 2.3 6.1 85 1.2 W 28 59 15 32 - - 3.0
30/11:30pm 8.4 3.3 6.0 85 1.2 W 22 48 12 26 - - 3.0
30/11:00pm 8.7 5.7 6.2 84 1.3 NW 11 33 6 18 - - 3.0
30/10:30pm 8.7 6.6 6.5 86 1.1 NW 7 41 4 22 - - 3.0
30/10:00pm 8.8 6.3 6.6 86 1.1 NNE 9 41 5 22 - - 3.0
30/09:30pm 8.9 6.4 6.7 86 1.1 NNW 9 24 5 13 - - 3.0
30/09:00pm 8.8 6.3 6.4 85 1.2 NNW 9 30 5 16 - - 3.0
30/08:30pm 8.7 6.7 6.3 85 1.2 N 6 17 3 9 - - 3.0
30/08:00pm 8.9 6.4 6.5 85 1.2 NNE 9 37 5 20 - - 3.0
30/07:30pm 8.8 6.3 6.4 85 1.2 NW 9 20 5 11 - - 3.0
30/07:00pm 8.8 6.3 6.4 85 1.2 NW 9 28 5 15 - - 3.0
30/06:30pm 8.8 6.6 6.3 84 1.3 WNW 7 19 4 10 - - 3.0
30/06:00pm 8.9 4.9 6.7 86 1.1 W 17 30 9 16 - - 3.0
30/05:30pm 8.9 6.0 6.7 86 1.1 WNW 11 24 6 13 - - 3.0
30/05:00pm 9.0 6.2 7.1 88 1.0 WNW 11 26 6 14 - - 3.0
30/04:30pm 9.3 5.8 7.1 86 1.1 W 15 26 8 14 - - 3.0
30/04:00pm 9.2 4.4 7.3 88 1.0 W 22 39 12 21 - - 3.0
30/03:30pm 9.2 6.5 7.3 88 1.0 W 11 35 6 19 - - 3.0
30/03:00pm 9.3 5.2 7.7 90 0.8 W 19 35 10 19 - - 3.0
30/02:30pm 9.4 4.0 7.8 90 0.8 W 26 46 14 25 - - 3.0
30/02:28pm 9.3 3.5 7.9 91 0.7 W 28 46 15 25 - - 3.0
30/02:00pm 9.1 3.7 8.2 94 0.5 WNW 26 46 14 25 - - 3.0
30/01:30pm 9.4 6.5 8.3 93 0.6 W 13 28 7 15 - - 3.0

Latest Capital City Observations: Canberra | Sydney | Melbourne | Brisbane | Adelaide | Perth | Hobart | Darwin

Other Formats:

Comma delimited format used in spreadsheet applications
http://www.bom.gov.au/fwo/IDN60903/IDN60903.94915.axf

JavaScript Object Notation format (JSON) in row-major order
http://www.bom.gov.au/fwo/IDN60903/IDN60903.94915.json